sensor_id;sensor_type;location;lat;lon;timestamp;pressure;altitude;pressure_sealevel;temperature;humidity
13661;BME280;6903;49.480;11.102;2023-02-11T00:00:19;58397.03;;;-141.35;100.00
13661;BME280;6903;49.480;11.102;2023-02-11T00:02:44;58397.03;;;-141.35;100.00
13661;BME280;6903;49.480;11.102;2023-02-11T00:05:09;58397.03;;;-141.35;100.00
13661;BME280;6903;49.480;11.102;2023-02-11T00:07:35;58397.03;;;-141.35;100.00
13661;BME280;6903;49.480;11.102;2023-02-11T00:10:00;58397.03;;;-141.35;100.00
13661;BME280;6903;49.480;11.102;2023-02-11T00:12:28;58397.03;;;-141.35;100.00
13661;BME280;6903;49.480;11.102;2023-02-11T00:14:54;58397.03;;;-141.35;100.00
13661;BME280;6903;49.480;11.102;2023-02-11T00:17:19;58397.03;;;-141.35;100.00
13661;BME280;6903;49.480;11.102;2023-02-11T00:19:51;58397.03;;;-141.35;100.00
13661;BME280;6903;49.480;11.102;2023-02-11T00:22:16;58397.03;;;-141.35;100.00
13661;BME280;6903;49.480;11.102;2023-02-11T00:24:41;58397.03;;;-141.35;100.00
13661;BME280;6903;49.480;11.102;2023-02-11T00:27:07;58397.03;;;-141.35;100.00
13661;BME280;6903;49.480;11.102;2023-02-11T00:29:32;58397.03;;;-141.35;100.00
13661;BME280;6903;49.480;11.102;2023-02-11T00:31:57;58397.03;;;-141.35;100.00
13661;BME280;6903;49.480;11.102;2023-02-11T00:34:23;58397.03;;;-141.35;100.00
13661;BME280;6903;49.480;11.102;2023-02-11T00:36:48;58397.03;;;-141.35;100.00
13661;BME280;6903;49.480;11.102;2023-02-11T00:39:14;58397.03;;;-141.35;100.00
13661;BME280;6903;49.480;11.102;2023-02-11T00:41:39;58397.03;;;-141.35;100.00
13661;BME280;6903;49.480;11.102;2023-02-11T00:44:05;58397.03;;;-141.35;100.00
13661;BME280;6903;49.480;11.102;2023-02-11T00:46:30;58397.03;;;-141.35;100.00
13661;BME280;6903;49.480;11.102;2023-02-11T00:48:55;58397.03;;;-141.35;100.00
13661;BME280;6903;49.480;11.102;2023-02-11T00:51:26;58397.03;;;-141.35;100.00
13661;BME280;6903;49.480;11.102;2023-02-11T00:53:52;58397.03;;;-141.35;100.00
13661;BME280;6903;49.480;11.102;2023-02-11T00:56:17;58397.03;;;-141.35;100.00
13661;BME280;6903;49.480;11.102;2023-02-11T00:58:43;58397.03;;;-141.35;100.00
13661;BME280;6903;49.480;11.102;2023-02-11T01:01:08;58397.03;;;-141.35;100.00
13661;BME280;6903;49.480;11.102;2023-02-11T01:03:34;58397.03;;;-141.35;100.00
13661;BME280;6903;49.480;11.102;2023-02-11T01:05:59;58397.03;;;-141.35;100.00
13661;BME280;6903;49.480;11.102;2023-02-11T01:08:25;58397.03;;;-141.35;100.00
13661;BME280;6903;49.480;11.102;2023-02-11T01:10:58;58397.03;;;-141.35;100.00
13661;BME280;6903;49.480;11.102;2023-02-11T01:13:25;58397.03;;;-141.35;100.00
13661;BME280;6903;49.480;11.102;2023-02-11T01:15:51;58397.03;;;-141.35;100.00
13661;BME280;6903;49.480;11.102;2023-02-11T01:18:17;58397.03;;;-141.35;100.00
13661;BME280;6903;49.480;11.102;2023-02-11T01:20:42;58397.03;;;-141.35;100.00
13661;BME280;6903;49.480;11.102;2023-02-11T01:23:07;58397.03;;;-141.35;100.00
13661;BME280;6903;49.480;11.102;2023-02-11T01:25:33;58397.03;;;-141.35;100.00
13661;BME280;6903;49.480;11.102;2023-02-11T01:27:58;58397.03;;;-141.35;100.00
13661;BME280;6903;49.480;11.102;2023-02-11T01:30:24;58397.03;;;-141.35;100.00
13661;BME280;6903;49.480;11.102;2023-02-11T01:32:49;58397.03;;;-141.35;100.00
13661;BME280;6903;49.480;11.102;2023-02-11T01:35:14;58397.03;;;-141.35;100.00
13661;BME280;6903;49.480;11.102;2023-02-11T01:37:40;58397.03;;;-141.35;100.00
13661;BME280;6903;49.480;11.102;2023-02-11T01:40:11;58397.03;;;-141.35;100.00
13661;BME280;6903;49.480;11.102;2023-02-11T01:42:37;58397.03;;;-141.35;100.00
13661;BME280;6903;49.480;11.102;2023-02-11T01:48:06;58397.03;;;-141.35;100.00
13661;BME280;6903;49.480;11.102;2023-02-11T01:50:33;58397.03;;;-141.35;100.00
13661;BME280;6903;49.480;11.102;2023-02-11T01:52:58;58397.03;;;-141.35;100.00
13661;BME280;6903;49.480;11.102;2023-02-11T01:55:44;58397.03;;;-141.35;100.00
13661;BME280;6903;49.480;11.102;2023-02-11T01:58:28;58397.03;;;-141.35;100.00
13661;BME280;6903;49.480;11.102;2023-02-11T02:00:57;58397.03;;;-141.35;100.00
13661;BME280;6903;49.480;11.102;2023-02-11T02:03:23;58397.03;;;-141.35;100.00
13661;BME280;6903;49.480;11.102;2023-02-11T02:05:58;58397.03;;;-141.35;100.00
13661;BME280;6903;49.480;11.102;2023-02-11T02:08:33;58397.03;;;-141.35;100.00
13661;BME280;6903;49.480;11.102;2023-02-11T02:11:00;58397.03;;;-141.35;100.00
13661;BME280;6903;49.480;11.102;2023-02-11T02:13:27;58397.03;;;-141.35;100.00
13661;BME280;6903;49.480;11.102;2023-02-11T02:15:56;58397.03;;;-141.35;100.00
13661;BME280;6903;49.480;11.102;2023-02-11T02:18:38;58397.03;;;-141.35;100.00
13661;BME280;6903;49.480;11.102;2023-02-11T02:21:34;58397.03;;;-141.35;100.00
13661;BME280;6903;49.480;11.102;2023-02-11T02:24:30;58397.03;;;-141.35;100.00
13661;BME280;6903;49.480;11.102;2023-02-11T02:29:47;58397.03;;;-141.35;100.00
13661;BME280;6903;49.480;11.102;2023-02-11T02:32:42;58397.03;;;-141.35;100.00
13661;BME280;6903;49.480;11.102;2023-02-11T02:35:24;58397.03;;;-141.35;100.00
13661;BME280;6903;49.480;11.102;2023-02-11T02:38:15;58397.03;;;-141.35;100.00
13661;BME280;6903;49.480;11.102;2023-02-11T02:40:49;58397.03;;;-141.35;100.00
13661;BME280;6903;49.480;11.102;2023-02-11T02:43:16;58397.03;;;-141.35;100.00
13661;BME280;6903;49.480;11.102;2023-02-11T02:45:42;58397.03;;;-141.35;100.00
13661;BME280;6903;49.480;11.102;2023-02-11T02:48:23;58397.03;;;-141.35;100.00
13661;BME280;6903;49.480;11.102;2023-02-11T02:50:52;58397.03;;;-141.35;100.00
13661;BME280;6903;49.480;11.102;2023-02-11T02:56:39;58397.03;;;-141.35;100.00
13661;BME280;6903;49.480;11.102;2023-02-11T03:04:56;58397.03;;;-141.35;100.00
13661;BME280;6903;49.480;11.102;2023-02-11T03:07:41;58397.03;;;-141.35;100.00
13661;BME280;6903;49.480;11.102;2023-02-11T03:10:14;58397.03;;;-141.35;100.00
13661;BME280;6903;49.480;11.102;2023-02-11T03:12:41;58397.03;;;-141.35;100.00
13661;BME280;6903;49.480;11.102;2023-02-11T03:15:08;58397.03;;;-141.35;100.00
13661;BME280;6903;49.480;11.102;2023-02-11T03:17:38;58397.03;;;-141.35;100.00
13661;BME280;6903;49.480;11.102;2023-02-11T03:20:09;58397.03;;;-141.35;100.00
13661;BME280;6903;49.480;11.102;2023-02-11T03:22:43;58397.03;;;-141.35;100.00
13661;BME280;6903;49.480;11.102;2023-02-11T03:25:10;58397.03;;;-141.35;100.00
13661;BME280;6903;49.480;11.102;2023-02-11T03:30:27;58397.03;;;-141.35;100.00
13661;BME280;6903;49.480;11.102;2023-02-11T03:32:57;58397.03;;;-141.35;100.00
13661;BME280;6903;49.480;11.102;2023-02-11T03:35:30;58397.03;;;-141.35;100.00
13661;BME280;6903;49.480;11.102;2023-02-11T03:38:01;58397.03;;;-141.35;100.00
13661;BME280;6903;49.480;11.102;2023-02-11T03:40:31;58397.03;;;-141.35;100.00
13661;BME280;6903;49.480;11.102;2023-02-11T03:43:02;58397.03;;;-141.35;100.00
13661;BME280;6903;49.480;11.102;2023-02-11T03:45:30;58397.03;;;-141.35;100.00
13661;BME280;6903;49.480;11.102;2023-02-11T03:48:03;58397.03;;;-141.35;100.00
13661;BME280;6903;49.480;11.102;2023-02-11T03:50:31;58397.03;;;-141.35;100.00
13661;BME280;6903;49.480;11.102;2023-02-11T03:52:59;58397.03;;;-141.35;100.00
13661;BME280;6903;49.480;11.102;2023-02-11T03:55:27;58397.03;;;-141.35;100.00
13661;BME280;6903;49.480;11.102;2023-02-11T03:57:53;58397.03;;;-141.35;100.00
13661;BME280;6903;49.480;11.102;2023-02-11T04:00:19;58397.03;;;-141.35;100.00
13661;BME280;6903;49.480;11.102;2023-02-11T04:02:44;58397.03;;;-141.35;100.00
13661;BME280;6903;49.480;11.102;2023-02-11T04:05:13;58397.03;;;-141.35;100.00
13661;BME280;6903;49.480;11.102;2023-02-11T04:07:38;58397.03;;;-141.35;100.00
13661;BME280;6903;49.480;11.102;2023-02-11T04:10:04;58397.03;;;-141.35;100.00
13661;BME280;6903;49.480;11.102;2023-02-11T04:12:30;58397.03;;;-141.35;100.00
13661;BME280;6903;49.480;11.102;2023-02-11T04:14:55;58397.03;;;-141.35;100.00
13661;BME280;6903;49.480;11.102;2023-02-11T04:17:20;58397.03;;;-141.35;100.00
13661;BME280;6903;49.480;11.102;2023-02-11T04:19:46;58397.03;;;-141.35;100.00
13661;BME280;6903;49.480;11.102;2023-02-11T04:22:11;58397.03;;;-141.35;100.00
13661;BME280;6903;49.480;11.102;2023-02-11T04:24:37;58397.03;;;-141.35;100.00
13661;BME280;6903;49.480;11.102;2023-02-11T04:27:02;58397.03;;;-141.35;100.00
13661;BME280;6903;49.480;11.102;2023-02-11T04:29:27;58397.03;;;-141.35;100.00
13661;BME280;6903;49.480;11.102;2023-02-11T04:31:53;58397.03;;;-141.35;100.00
13661;BME280;6903;49.480;11.102;2023-02-11T04:34:20;58397.03;;;-141.35;100.00
13661;BME280;6903;49.480;11.102;2023-02-11T04:36:45;58397.03;;;-141.35;100.00
13661;BME280;6903;49.480;11.102;2023-02-11T04:39:10;58397.03;;;-141.35;100.00
13661;BME280;6903;49.480;11.102;2023-02-11T04:41:35;58397.03;;;-141.35;100.00
13661;BME280;6903;49.480;11.102;2023-02-11T04:44:01;58397.03;;;-141.35;100.00
13661;BME280;6903;49.480;11.102;2023-02-11T04:46:26;58397.03;;;-141.35;100.00
13661;BME280;6903;49.480;11.102;2023-02-11T04:48:51;58397.03;;;-141.35;100.00
13661;BME280;6903;49.480;11.102;2023-02-11T04:51:17;58397.03;;;-141.35;100.00
13661;BME280;6903;49.480;11.102;2023-02-11T04:53:42;58397.03;;;-141.35;100.00
13661;BME280;6903;49.480;11.102;2023-02-11T04:56:07;58397.03;;;-141.35;100.00
13661;BME280;6903;49.480;11.102;2023-02-11T04:58:33;58397.03;;;-141.35;100.00
13661;BME280;6903;49.480;11.102;2023-02-11T05:01:09;58397.03;;;-141.35;100.00
13661;BME280;6903;49.480;11.102;2023-02-11T05:03:36;58397.03;;;-141.35;100.00
13661;BME280;6903;49.480;11.102;2023-02-11T05:06:01;58397.03;;;-141.35;100.00
13661;BME280;6903;49.480;11.102;2023-02-11T05:08:27;58397.03;;;-141.35;100.00
13661;BME280;6903;49.480;11.102;2023-02-11T05:10:52;58397.03;;;-141.35;100.00
13661;BME280;6903;49.480;11.102;2023-02-11T05:13:17;58397.03;;;-141.35;100.00
13661;BME280;6903;49.480;11.102;2023-02-11T05:15:43;58397.03;;;-141.35;100.00
13661;BME280;6903;49.480;11.102;2023-02-11T05:18:08;58397.03;;;-141.35;100.00
13661;BME280;6903;49.480;11.102;2023-02-11T05:20:33;58397.03;;;-141.35;100.00
13661;BME280;6903;49.480;11.102;2023-02-11T05:23:01;58397.03;;;-141.35;100.00
13661;BME280;6903;49.480;11.102;2023-02-11T05:25:26;58397.03;;;-141.35;100.00
13661;BME280;6903;49.480;11.102;2023-02-11T05:27:52;58397.03;;;-141.35;100.00
13661;BME280;6903;49.480;11.102;2023-02-11T05:30:17;58397.03;;;-141.35;100.00
13661;BME280;6903;49.480;11.102;2023-02-11T05:32:42;58397.03;;;-141.35;100.00
13661;BME280;6903;49.480;11.102;2023-02-11T05:35:08;58397.03;;;-141.35;100.00
13661;BME280;6903;49.480;11.102;2023-02-11T05:37:33;58397.03;;;-141.35;100.00
13661;BME280;6903;49.480;11.102;2023-02-11T05:39:59;58397.03;;;-141.35;100.00
13661;BME280;6903;49.480;11.102;2023-02-11T05:42:24;58397.03;;;-141.35;100.00
13661;BME280;6903;49.480;11.102;2023-02-11T05:44:49;58397.03;;;-141.35;100.00
13661;BME280;6903;49.480;11.102;2023-02-11T05:47:15;58397.03;;;-141.35;100.00
13661;BME280;6903;49.480;11.102;2023-02-11T05:49:40;58397.03;;;-141.35;100.00
13661;BME280;6903;49.480;11.102;2023-02-11T05:52:05;58397.03;;;-141.35;100.00
13661;BME280;6903;49.480;11.102;2023-02-11T05:54:31;58397.03;;;-141.35;100.00
13661;BME280;6903;49.480;11.102;2023-02-11T05:56:56;58397.03;;;-141.35;100.00
13661;BME280;6903;49.480;11.102;2023-02-11T05:59:21;58397.03;;;-141.35;100.00
13661;BME280;6903;49.480;11.102;2023-02-11T06:01:46;58397.03;;;-141.35;100.00
13661;BME280;6903;49.480;11.102;2023-02-11T06:04:12;58397.03;;;-141.35;100.00
13661;BME280;6903;49.480;11.102;2023-02-11T06:06:37;58397.03;;;-141.35;100.00
13661;BME280;6903;49.480;11.102;2023-02-11T06:09:03;58397.03;;;-141.35;100.00
13661;BME280;6903;49.480;11.102;2023-02-11T06:11:28;58397.03;;;-141.35;100.00
13661;BME280;6903;49.480;11.102;2023-02-11T06:13:53;58397.03;;;-141.35;100.00
13661;BME280;6903;49.480;11.102;2023-02-11T06:16:19;58397.03;;;-141.35;100.00
13661;BME280;6903;49.480;11.102;2023-02-11T06:18:44;58397.03;;;-141.35;100.00
13661;BME280;6903;49.480;11.102;2023-02-11T06:21:10;58397.03;;;-141.35;100.00
13661;BME280;6903;49.480;11.102;2023-02-11T06:23:36;58397.03;;;-141.35;100.00
13661;BME280;6903;49.480;11.102;2023-02-11T06:26:04;58397.03;;;-141.35;100.00
13661;BME280;6903;49.480;11.102;2023-02-11T06:28:29;58397.03;;;-141.35;100.00
13661;BME280;6903;49.480;11.102;2023-02-11T06:31:00;58397.03;;;-141.35;100.00
13661;BME280;6903;49.480;11.102;2023-02-11T06:33:28;58397.03;;;-141.35;100.00
13661;BME280;6903;49.480;11.102;2023-02-11T06:35:53;58397.03;;;-141.35;100.00
13661;BME280;6903;49.480;11.102;2023-02-11T06:38:18;58397.03;;;-141.35;100.00
13661;BME280;6903;49.480;11.102;2023-02-11T06:40:48;58397.03;;;-141.35;100.00
13661;BME280;6903;49.480;11.102;2023-02-11T06:43:13;58397.03;;;-141.35;100.00
13661;BME280;6903;49.480;11.102;2023-02-11T06:45:39;58397.03;;;-141.35;100.00
13661;BME280;6903;49.480;11.102;2023-02-11T06:48:04;58397.03;;;-141.35;100.00
13661;BME280;6903;49.480;11.102;2023-02-11T06:50:29;58397.03;;;-141.35;100.00
13661;BME280;6903;49.480;11.102;2023-02-11T06:52:55;58397.03;;;-141.35;100.00
13661;BME280;6903;49.480;11.102;2023-02-11T06:55:20;58397.03;;;-141.35;100.00
13661;BME280;6903;49.480;11.102;2023-02-11T06:57:45;58397.03;;;-141.35;100.00
13661;BME280;6903;49.480;11.102;2023-02-11T07:00:11;58397.03;;;-141.35;100.00
13661;BME280;6903;49.480;11.102;2023-02-11T07:02:37;58397.03;;;-141.35;100.00
13661;BME280;6903;49.480;11.102;2023-02-11T07:05:05;58397.03;;;-141.35;100.00
13661;BME280;6903;49.480;11.102;2023-02-11T07:07:30;58397.03;;;-141.35;100.00
13661;BME280;6903;49.480;11.102;2023-02-11T07:09:56;58397.03;;;-141.35;100.00
13661;BME280;6903;49.480;11.102;2023-02-11T07:12:21;58397.03;;;-141.35;100.00
13661;BME280;6903;49.480;11.102;2023-02-11T07:14:47;58397.03;;;-141.35;100.00
13661;BME280;6903;49.480;11.102;2023-02-11T07:17:12;58397.03;;;-141.35;100.00
13661;BME280;6903;49.480;11.102;2023-02-11T07:19:37;58397.03;;;-141.35;100.00
13661;BME280;6903;49.480;11.102;2023-02-11T07:22:03;58397.03;;;-141.35;100.00
13661;BME280;6903;49.480;11.102;2023-02-11T07:24:28;58397.03;;;-141.35;100.00
13661;BME280;6903;49.480;11.102;2023-02-11T07:26:53;58397.03;;;-141.35;100.00
13661;BME280;6903;49.480;11.102;2023-02-11T07:29:18;58397.03;;;-141.35;100.00
13661;BME280;6903;49.480;11.102;2023-02-11T07:31:44;58397.03;;;-141.35;100.00
13661;BME280;6903;49.480;11.102;2023-02-11T07:34:09;58397.03;;;-141.35;100.00
13661;BME280;6903;49.480;11.102;2023-02-11T07:36:35;58397.03;;;-141.35;100.00
13661;BME280;6903;49.480;11.102;2023-02-11T07:39:00;58397.03;;;-141.35;100.00
13661;BME280;6903;49.480;11.102;2023-02-11T07:41:26;58397.03;;;-141.35;100.00
13661;BME280;6903;49.480;11.102;2023-02-11T07:43:52;58397.03;;;-141.35;100.00
13661;BME280;6903;49.480;11.102;2023-02-11T07:46:23;58397.03;;;-141.35;100.00
13661;BME280;6903;49.480;11.102;2023-02-11T07:48:49;58397.03;;;-141.35;100.00
13661;BME280;6903;49.480;11.102;2023-02-11T07:51:18;58397.03;;;-141.35;100.00
13661;BME280;6903;49.480;11.102;2023-02-11T07:53:44;58397.03;;;-141.35;100.00
13661;BME280;6903;49.480;11.102;2023-02-11T07:56:11;58397.03;;;-141.35;100.00
13661;BME280;6903;49.480;11.102;2023-02-11T07:58:38;58397.03;;;-141.35;100.00
13661;BME280;6903;49.480;11.102;2023-02-11T08:01:08;58397.03;;;-141.35;100.00
13661;BME280;6903;49.480;11.102;2023-02-11T08:03:35;58397.03;;;-141.35;100.00
13661;BME280;6903;49.480;11.102;2023-02-11T08:06:08;58397.03;;;-141.35;100.00
13661;BME280;6903;49.480;11.102;2023-02-11T08:08:34;58397.03;;;-141.35;100.00
13661;BME280;6903;49.480;11.102;2023-02-11T08:11:05;58397.03;;;-141.35;100.00
13661;BME280;6903;49.480;11.102;2023-02-11T08:13:31;58397.03;;;-141.35;100.00
13661;BME280;6903;49.480;11.102;2023-02-11T08:15:57;58397.03;;;-141.35;100.00
13661;BME280;6903;49.480;11.102;2023-02-11T08:18:22;58397.03;;;-141.35;100.00
13661;BME280;6903;49.480;11.102;2023-02-11T08:20:48;58397.03;;;-141.35;100.00
13661;BME280;6903;49.480;11.102;2023-02-11T08:23:13;58397.03;;;-141.35;100.00
13661;BME280;6903;49.480;11.102;2023-02-11T08:25:38;58397.03;;;-141.35;100.00
13661;BME280;6903;49.480;11.102;2023-02-11T08:28:04;58397.03;;;-141.35;100.00
13661;BME280;6903;49.480;11.102;2023-02-11T08:30:29;58397.03;;;-141.35;100.00
13661;BME280;6903;49.480;11.102;2023-02-11T08:32:54;58397.03;;;-141.35;100.00
13661;BME280;6903;49.480;11.102;2023-02-11T08:35:20;58397.03;;;-141.35;100.00
13661;BME280;6903;49.480;11.102;2023-02-11T08:37:46;58397.03;;;-141.35;100.00
13661;BME280;6903;49.480;11.102;2023-02-11T08:40:11;58397.03;;;-141.35;100.00
13661;BME280;6903;49.480;11.102;2023-02-11T08:42:41;99621.28;;;5.86;100.00
13661;BME280;6903;49.480;11.102;2023-02-11T08:45:07;99616.09;;;5.85;100.00
13661;BME280;6903;49.480;11.102;2023-02-11T08:47:34;99615.94;;;5.89;100.00
13661;BME280;6903;49.480;11.102;2023-02-11T08:50:00;99620.72;;;6.01;100.00
13661;BME280;6903;49.480;11.102;2023-02-11T08:52:25;99620.38;;;6.12;100.00
13661;BME280;6903;49.480;11.102;2023-02-11T08:54:50;99610.84;;;6.09;100.00
13661;BME280;6903;49.480;11.102;2023-02-11T08:57:15;99615.94;;;6.14;100.00
13661;BME280;6903;49.480;11.102;2023-02-11T08:59:41;99620.31;;;6.13;100.00
13661;BME280;6903;49.480;11.102;2023-02-11T09:02:10;99616.53;;;6.22;100.00
13661;BME280;6903;49.480;11.102;2023-02-11T09:04:36;99625.78;;;6.30;100.00
13661;BME280;6903;49.480;11.102;2023-02-11T09:07:01;99605.34;;;6.40;100.00
13661;BME280;6903;49.480;11.102;2023-02-11T09:09:27;99607.97;;;6.40;100.00
13661;BME280;6903;49.480;11.102;2023-02-11T09:11:52;99605.78;;;6.52;100.00
13661;BME280;6903;49.480;11.102;2023-02-11T09:14:22;99602.34;;;6.73;100.00
13661;BME280;6903;49.480;11.102;2023-02-11T09:16:48;99607.94;;;6.87;100.00
13661;BME280;6903;49.480;11.102;2023-02-11T09:19:13;99591.66;;;7.01;100.00
13661;BME280;6903;49.480;11.102;2023-02-11T09:21:39;99593.06;;;7.09;100.00
13661;BME280;6903;49.480;11.102;2023-02-11T09:24:04;99600.13;;;7.07;100.00
13661;BME280;6903;49.480;11.102;2023-02-11T09:26:32;99599.78;;;7.16;100.00
13661;BME280;6903;49.480;11.102;2023-02-11T09:28:58;99594.16;;;7.26;100.00
13661;BME280;6903;49.480;11.102;2023-02-11T09:31:25;99595.91;;;7.25;100.00
13661;BME280;6903;49.480;11.102;2023-02-11T09:33:54;99602.97;;;7.25;100.00
13661;BME280;6903;49.480;11.102;2023-02-11T09:36:22;99609.72;;;7.30;100.00
13661;BME280;6903;49.480;11.102;2023-02-11T09:38:49;99613.88;;;7.36;100.00
13661;BME280;6903;49.480;11.102;2023-02-11T09:41:49;99623.88;;;7.48;100.00
13661;BME280;6903;49.480;11.102;2023-02-11T09:44:21;99622.31;;;7.64;100.00
13661;BME280;6903;49.480;11.102;2023-02-11T09:47:05;99620.84;;;7.98;100.00
13661;BME280;6903;49.480;11.102;2023-02-11T09:49:40;99615.75;;;8.35;100.00
13661;BME280;6903;49.480;11.102;2023-02-11T09:52:28;99615.75;;;8.74;100.00
13661;BME280;6903;49.480;11.102;2023-02-11T09:55:00;99619.56;;;9.04;100.00
13661;BME280;6903;49.480;11.102;2023-02-11T09:57:31;99626.56;;;9.05;100.00
13661;BME280;6903;49.480;11.102;2023-02-11T09:59:58;99619.34;;;9.09;100.00
13661;BME280;6903;49.480;11.102;2023-02-11T10:02:38;99624.97;;;9.20;100.00
13661;BME280;6903;49.480;11.102;2023-02-11T10:05:21;99621.53;;;9.36;100.00
13661;BME280;6903;49.480;11.102;2023-02-11T10:07:59;99629.19;;;9.59;100.00
13661;BME280;6903;49.480;11.102;2023-02-11T10:10:38;99623.03;;;10.12;100.00
13661;BME280;6903;49.480;11.102;2023-02-11T10:13:23;99620.50;;;10.60;100.00
13661;BME280;6903;49.480;11.102;2023-02-11T10:16:02;99622.03;;;10.64;100.00
13661;BME280;6903;49.480;11.102;2023-02-11T10:18:50;99630.44;;;10.55;100.00
13661;BME280;6903;49.480;11.102;2023-02-11T10:24:13;99625.09;;;10.56;100.00
13661;BME280;6903;49.480;11.102;2023-02-11T10:26:39;99621.38;;;10.76;100.00
13661;BME280;6903;49.480;11.102;2023-02-11T10:29:17;99624.03;;;10.76;100.00
13661;BME280;6903;49.480;11.102;2023-02-11T10:31:45;99634.88;;;10.70;100.00
13661;BME280;6903;49.480;11.102;2023-02-11T10:34:13;99634.06;;;10.85;100.00
13661;BME280;6903;49.480;11.102;2023-02-11T10:36:41;99635.22;;;11.12;100.00
13661;BME280;6903;49.480;11.102;2023-02-11T10:39:24;99624.28;;;11.18;100.00
13661;BME280;6903;49.480;11.102;2023-02-11T10:42:00;99620.56;;;11.22;100.00
13661;BME280;6903;49.480;11.102;2023-02-11T10:44:33;99622.03;;;11.27;100.00
13661;BME280;6903;49.480;11.102;2023-02-11T10:47:10;99622.50;;;11.34;100.00
13661;BME280;6903;49.480;11.102;2023-02-11T10:49:40;99615.72;;;11.30;100.00
13661;BME280;6903;49.480;11.102;2023-02-11T10:52:13;99613.25;;;11.27;100.00
13661;BME280;6903;49.480;11.102;2023-02-11T10:54:39;99614.19;;;11.10;100.00
13661;BME280;6903;49.480;11.102;2023-02-11T10:57:04;99619.28;;;10.98;100.00
13661;BME280;6903;49.480;11.102;2023-02-11T10:59:34;99616.22;;;10.90;100.00
13661;BME280;6903;49.480;11.102;2023-02-11T11:02:19;99614.78;;;11.15;100.00
13661;BME280;6903;49.480;11.102;2023-02-11T11:04:46;99607.84;;;11.44;100.00
13661;BME280;6903;49.480;11.102;2023-02-11T11:07:24;99608.13;;;11.39;100.00
13661;BME280;6903;49.480;11.102;2023-02-11T11:09:51;99612.72;;;11.36;100.00
13661;BME280;6903;49.480;11.102;2023-02-11T11:17:36;99611.94;;;11.34;100.00
13661;BME280;6903;49.480;11.102;2023-02-11T11:20:21;99610.94;;;11.36;100.00
13661;BME280;6903;49.480;11.102;2023-02-11T11:22:50;99620.56;;;11.37;100.00
13661;BME280;6903;49.480;11.102;2023-02-11T11:25:26;99617.66;;;11.42;100.00
13661;BME280;6903;49.480;11.102;2023-02-11T11:27:55;99612.44;;;11.40;100.00
13661;BME280;6903;49.480;11.102;2023-02-11T11:30:22;99612.44;;;11.40;100.00
13661;BME280;6903;49.480;11.102;2023-02-11T11:32:51;99618.69;;;11.39;100.00
13661;BME280;6903;49.480;11.102;2023-02-11T11:35:25;99619.38;;;11.43;100.00
13661;BME280;6903;49.480;11.102;2023-02-11T11:37:54;99618.88;;;11.21;100.00
13661;BME280;6903;49.480;11.102;2023-02-11T11:40:26;99608.97;;;11.09;100.00
13661;BME280;6903;49.480;11.102;2023-02-11T11:43:15;99613.22;;;11.11;100.00
13661;BME280;6903;49.480;11.102;2023-02-11T11:45:54;99610.16;;;11.03;100.00
13661;BME280;6903;49.480;11.102;2023-02-11T11:48:25;99608.53;;;10.85;100.00
13661;BME280;6903;49.480;11.102;2023-02-11T11:50:55;99604.19;;;10.84;100.00
13661;BME280;6903;49.480;11.102;2023-02-11T11:54:14;99606.63;;;10.72;100.00
13661;BME280;6903;49.480;11.102;2023-02-11T11:56:22;99602.66;;;10.80;100.00
13661;BME280;6903;49.480;11.102;2023-02-11T11:58:48;99598.22;;;10.81;100.00
13661;BME280;6903;49.480;11.102;2023-02-11T12:01:39;99601.53;;;10.84;100.00
13661;BME280;6903;49.480;11.102;2023-02-11T12:04:18;99607.59;;;10.86;100.00
13661;BME280;6903;49.480;11.102;2023-02-11T12:10:17;99602.34;;;10.54;100.00
13661;BME280;6903;49.480;11.102;2023-02-11T12:13:19;99599.78;;;10.52;100.00
13661;BME280;6903;49.480;11.102;2023-02-11T12:15:54;99603.13;;;10.71;100.00
13661;BME280;6903;49.480;11.102;2023-02-11T12:21:11;99600.97;;;10.95;100.00
13661;BME280;6903;49.480;11.102;2023-02-11T12:26:55;99593.13;;;11.09;100.00
13661;BME280;6903;49.480;11.102;2023-02-11T12:35:37;99597.78;;;10.73;100.00
13661;BME280;6903;49.480;11.102;2023-02-11T12:38:20;99592.47;;;10.90;100.00
13661;BME280;6903;49.480;11.102;2023-02-11T12:41:00;99586.22;;;10.91;100.00
13661;BME280;6903;49.480;11.102;2023-02-11T12:43:37;99591.06;;;10.83;100.00
13661;BME280;6903;49.480;11.102;2023-02-11T12:51:58;99571.81;;;10.81;100.00
13661;BME280;6903;49.480;11.102;2023-02-11T12:54:36;99578.75;;;10.99;100.00
13661;BME280;6903;49.480;11.102;2023-02-11T12:59:57;99578.16;;;11.09;100.00
13661;BME280;6903;49.480;11.102;2023-02-11T13:02:32;99579.19;;;11.22;100.00
13661;BME280;6903;49.480;11.102;2023-02-11T13:05:11;99567.41;;;11.28;100.00
13661;BME280;6903;49.480;11.102;2023-02-11T13:07:44;99560.75;;;11.36;100.00
13661;BME280;6903;49.480;11.102;2023-02-11T13:12:42;99556.59;;;11.17;100.00
13661;BME280;6903;49.480;11.102;2023-02-11T13:15:29;99550.63;;;11.13;100.00
13661;BME280;6903;49.480;11.102;2023-02-11T13:18:04;99550.97;;;11.23;100.00
13661;BME280;6903;49.480;11.102;2023-02-11T13:23:12;99549.72;;;11.14;100.00
13661;BME280;6903;49.480;11.102;2023-02-11T13:25:47;99553.72;;;11.06;100.00
13661;BME280;6903;49.480;11.102;2023-02-11T13:28:27;99545.97;;;11.03;100.00
13661;BME280;6903;49.480;11.102;2023-02-11T13:30:57;99549.38;;;10.89;100.00
13661;BME280;6903;49.480;11.102;2023-02-11T13:33:32;99550.91;;;10.93;100.00
13661;BME280;6903;49.480;11.102;2023-02-11T13:38:25;99552.69;;;10.93;100.00
13661;BME280;6903;49.480;11.102;2023-02-11T13:43:35;99564.72;;;10.98;100.00
13661;BME280;6903;49.480;11.102;2023-02-11T13:46:05;99564.44;;;10.87;100.00
13661;BME280;6903;49.480;11.102;2023-02-11T13:48:44;99560.28;;;10.83;100.00